Time;durP1;ratioP1;P1;durP2;ratioP2;P2;SDS_P1;SDS_P2;PMS_P1;PMS_P2;Temp;Humidity;BMP_temperature;BMP_pressure;BME280_temperature;BME280_humidity;BME280_pressure;Samples;Min_cycle;Max_cycle;Signal;HPM_P1;HPM_P2
2022/09/15 00:01:59;;;;;;;;;;;22.80;99.90;;;;;;5069393;28;19943;-63
2022/09/15 00:04:26;;;;;;;;;;;22.80;99.90;;;;;;5069605;28;19928;-61
2022/09/15 00:06:53;;;;;;;;;;;22.80;99.90;;;;;;5063982;28;20289;-62
2022/09/15 00:09:20;;;;;;;;;;;22.80;99.90;;;;;;5057728;28;20438;-64
2022/09/15 00:11:47;;;;;;;;;;;22.80;99.90;;;;;;5062874;28;20395;-63
2022/09/15 00:14:14;;;;;;;;;;;22.80;99.90;;;;;;5065769;28;20392;-63
2022/09/15 00:16:41;;;;;;;;;;;22.80;99.90;;;;;;5055801;28;19935;-62
2022/09/15 00:19:09;;;;;;;;;;;22.80;99.90;;;;;;5061937;28;19932;-63
2022/09/15 00:21:37;;;;;;;;;;;22.80;99.90;;;;;;5057578;28;20392;-63
2022/09/15 00:24:05;;;;;;;;;;;22.80;99.90;;;;;;5061649;28;19933;-63
2022/09/15 00:26:32;;;;;;;;;;;22.80;99.90;;;;;;5068340;28;20311;-63
2022/09/15 00:28:59;;;;;;;;;;;22.80;99.90;;;;;;5055790;28;19928;-63
2022/09/15 00:31:27;;;;;;;;;;;22.80;99.90;;;;;;5060606;28;20327;-63
2022/09/15 00:33:55;;;;;;;;;;;22.80;99.90;;;;;;5053981;28;19931;-63
2022/09/15 00:36:23;;;;;;;;;;;22.80;99.90;;;;;;5063574;28;20319;-63
2022/09/15 00:38:50;;;;;;;;;;;22.80;99.90;;;;;;5063736;28;19939;-63
2022/09/15 00:41:19;;;;;;;;;;;22.80;99.90;;;;;;5056852;28;19964;-63
2022/09/15 00:43:57;;;;;;;;;;;22.80;99.90;;;;;;5059302;28;20153;-63
2022/09/15 00:46:26;;;;;;;;;;;22.80;99.90;;;;;;5059142;28;19925;-63
2022/09/15 00:48:56;;;;;;;;;;;22.80;99.90;;;;;;5058085;28;20407;-63
2022/09/15 00:51:35;;;;;;;;;;;22.80;99.90;;;;;;5068913;28;19928;-63
2022/09/15 00:54:04;;;;;;;;;;;22.80;99.90;;;;;;5061961;28;19928;-63
2022/09/15 00:56:32;;;;;;;;;;;22.80;99.90;;;;;;5051822;28;19928;-63
2022/09/15 00:59:02;;;;;;;;;;;22.80;99.90;;;;;;5059365;28;19928;-62
2022/09/15 01:01:30;;;;;;;;;;;22.80;99.90;;;;;;5059186;28;19929;-63
2022/09/15 01:03:57;;;;;;;;;;;22.70;99.90;;;;;;5057978;28;20532;-61
2022/09/15 01:06:27;;;;;;;;;;;22.80;99.90;;;;;;5060898;28;19932;-62
2022/09/15 01:09:01;;;;;;;;;;;22.80;99.90;;;;;;5065940;28;19924;-62
2022/09/15 01:11:29;;;;;;;;;;;22.80;99.90;;;;;;5062265;28;19924;-62
2022/09/15 01:13:56;;;;;;;;;;;22.80;99.90;;;;;;5055709;28;19928;-64
2022/09/15 01:16:29;;;;;;;;;;;22.80;99.90;;;;;;5068207;28;19928;-63
2022/09/15 01:19:15;;;;;;;;;;;22.80;99.90;;;;;;5065690;28;19928;-64
2022/09/15 01:21:45;;;;;;;;;;;22.80;99.90;;;;;;5059007;28;19932;-63
2022/09/15 01:24:15;;;;;;;;;;;22.80;99.90;;;;;;5063201;28;19943;-62
2022/09/15 01:26:48;;;;;;;;;;;22.80;99.90;;;;;;5061993;28;20309;-63
2022/09/15 01:29:21;;;;;;;;;;;22.70;99.90;;;;;;5067892;28;19935;-61
2022/09/15 01:34:42;;;;;;;;;;;22.70;99.90;;;;;;5063981;28;19947;-62
2022/09/15 01:37:14;;;;;;;;;;;22.80;99.90;;;;;;5062291;28;20242;-62
2022/09/15 01:39:44;;;;;;;;;;;22.70;99.90;;;;;;5062864;28;19928;-62
2022/09/15 01:42:13;;;;;;;;;;;22.70;99.90;;;;;;5061340;28;19925;-63
2022/09/15 01:44:55;;;;;;;;;;;22.70;99.90;;;;;;5055782;28;20315;-62
2022/09/15 01:47:24;;;;;;;;;;;22.70;99.90;;;;;;5063621;28;19935;-62
2022/09/15 01:49:53;;;;;;;;;;;22.70;99.90;;;;;;5060967;28;20305;-62
2022/09/15 01:52:21;;;;;;;;;;;22.70;99.90;;;;;;5063983;28;19932;-62
2022/09/15 01:54:50;;;;;;;;;;;22.80;99.90;;;;;;5066258;28;20381;-63
2022/09/15 01:57:21;;;;;;;;;;;22.80;99.90;;;;;;5061826;28;19940;-62
2022/09/15 01:59:48;;;;;;;;;;;22.70;99.90;;;;;;5061340;28;19925;-62
2022/09/15 02:02:19;;;;;;;;;;;22.70;99.90;;;;;;5062633;28;20272;-62
2022/09/15 02:04:48;;;;;;;;;;;22.70;99.90;;;;;;5061258;28;19933;-62
2022/09/15 02:07:24;;;;;;;;;;;22.70;99.90;;;;;;5064930;28;19936;-63
2022/09/15 02:09:57;;;;;;;;;;;22.70;99.90;;;;;;5070666;28;19932;-64
2022/09/15 02:12:43;;;;;;;;;;;22.70;99.90;;;;;;5075157;28;19924;-63
2022/09/15 02:15:13;;;;;;;;;;;22.70;99.90;;;;;;5037832;28;19933;-62
2022/09/15 02:17:44;;;;;;;;;;;22.70;99.90;;;;;;5062538;28;19940;-61
2022/09/15 02:20:24;;;;;;;;;;;22.70;99.90;;;;;;5058361;28;19929;-61
2022/09/15 02:22:53;;;;;;;;;;;22.70;99.90;;;;;;5063038;28;19932;-61
2022/09/15 02:25:23;;;;;;;;;;;22.70;99.90;;;;;;5064775;28;20446;-61
2022/09/15 02:27:52;;;;;;;;;;;22.70;99.90;;;;;;5058534;28;19932;-61
2022/09/15 02:30:19;;;;;;;;;;;22.70;99.90;;;;;;5058948;28;20404;-61
2022/09/15 02:32:50;;;;;;;;;;;22.70;99.90;;;;;;5067772;28;19947;-62
2022/09/15 02:35:17;;;;;;;;;;;22.70;99.90;;;;;;5059494;28;20337;-63
2022/09/15 02:37:45;;;;;;;;;;;22.70;99.90;;;;;;5066166;28;19935;-62
2022/09/15 02:40:12;;;;;;;;;;;22.70;99.90;;;;;;5060365;28;19928;-63
2022/09/15 02:42:41;;;;;;;;;;;22.70;99.90;;;;;;5051638;28;19935;-63
2022/09/15 02:45:08;;;;;;;;;;;22.70;99.90;;;;;;5065118;28;20300;-61
2022/09/15 02:47:35;;;;;;;;;;;22.70;99.90;;;;;;5053992;28;19928;-63
2022/09/15 02:50:02;;;;;;;;;;;22.70;99.90;;;;;;5062118;28;19928;-63
2022/09/15 02:52:29;;;;;;;;;;;22.70;99.90;;;;;;5057299;28;19935;-64
2022/09/15 02:54:57;;;;;;;;;;;22.70;99.90;;;;;;5058559;28;19943;-63
2022/09/15 02:57:24;;;;;;;;;;;22.70;99.90;;;;;;5059465;28;19935;-64
2022/09/15 03:02:37;;;;;;;;;;;22.70;99.90;;;;;;5058923;28;19960;-64
2022/09/15 03:05:05;;;;;;;;;;;22.70;99.90;;;;;;5054640;28;19940;-64
2022/09/15 03:07:32;;;;;;;;;;;22.70;99.90;;;;;;5061326;28;19940;-63
2022/09/15 03:09:59;;;;;;;;;;;22.70;99.90;;;;;;5062501;28;19935;-63
2022/09/15 03:12:26;;;;;;;;;;;22.70;99.90;;;;;;5059539;28;19929;-64
2022/09/15 03:14:53;;;;;;;;;;;22.70;99.90;;;;;;5061227;28;19928;-64
2022/09/15 03:17:20;;;;;;;;;;;22.70;99.90;;;;;;5063590;28;20319;-64
2022/09/15 03:19:46;;;;;;;;;;;22.70;99.90;;;;;;5060020;28;19932;-64
2022/09/15 03:22:13;;;;;;;;;;;22.70;99.90;;;;;;5058073;28;19928;-64
2022/09/15 03:24:41;;;;;;;;;;;22.70;99.90;;;;;;5059356;28;19935;-63
2022/09/15 03:27:08;;;;;;;;;;;22.70;99.90;;;;;;5057419;28;19935;-64
2022/09/15 03:29:35;;;;;;;;;;;22.70;99.90;;;;;;5063897;28;19935;-64
2022/09/15 03:32:02;;;;;;;;;;;22.70;99.90;;;;;;5056436;28;20423;-64
2022/09/15 03:34:29;;;;;;;;;;;22.70;99.90;;;;;;5056422;28;19936;-63
2022/09/15 03:36:56;;;;;;;;;;;22.70;99.90;;;;;;5056515;28;19929;-64
2022/09/15 03:39:23;;;;;;;;;;;22.70;99.90;;;;;;5062479;28;19936;-64
2022/09/15 03:41:51;;;;;;;;;;;22.70;99.90;;;;;;5059706;28;19924;-64
2022/09/15 03:44:18;;;;;;;;;;;22.70;99.90;;;;;;5063308;28;20307;-64
2022/09/15 03:46:45;;;;;;;;;;;22.60;99.90;;;;;;5061760;28;19936;-64
2022/09/15 03:49:12;;;;;;;;;;;22.70;99.90;;;;;;5055139;28;19933;-64
2022/09/15 03:51:39;;;;;;;;;;;22.60;99.90;;;;;;5053923;28;19931;-64
2022/09/15 03:54:07;;;;;;;;;;;22.70;99.90;;;;;;5057403;28;20403;-63
2022/09/15 03:56:34;;;;;;;;;;;22.60;99.90;;;;;;5060260;28;19924;-63
2022/09/15 03:59:02;;;;;;;;;;;22.60;99.90;;;;;;5063809;28;19924;-64
2022/09/15 04:01:29;;;;;;;;;;;22.60;99.90;;;;;;5063293;28;19929;-63
2022/09/15 04:03:56;;;;;;;;;;;22.60;99.90;;;;;;5063514;28;19936;-63
2022/09/15 04:06:24;;;;;;;;;;;22.60;99.90;;;;;;5063570;28;20000;-63
2022/09/15 04:08:52;;;;;;;;;;;22.60;99.90;;;;;;5068368;28;19928;-64
2022/09/15 04:11:20;;;;;;;;;;;22.60;99.90;;;;;;5058861;28;19925;-63
2022/09/15 04:13:47;;;;;;;;;;;22.60;99.90;;;;;;5063224;28;20418;-62
2022/09/15 04:16:15;;;;;;;;;;;22.60;99.90;;;;;;5061840;28;19929;-63
2022/09/15 04:18:43;;;;;;;;;;;22.60;99.90;;;;;;5062940;28;19928;-63
2022/09/15 04:21:12;;;;;;;;;;;22.60;99.90;;;;;;5065588;28;20399;-63
2022/09/15 04:23:39;;;;;;;;;;;22.60;99.90;;;;;;5065954;28;19924;-63
2022/09/15 04:26:08;;;;;;;;;;;22.60;99.90;;;;;;5063606;28;19928;-61
2022/09/15 04:28:36;;;;;;;;;;;22.60;99.90;;;;;;5061238;28;19928;-63
2022/09/15 04:31:03;;;;;;;;;;;22.60;99.90;;;;;;5065923;28;20465;-64
2022/09/15 04:33:31;;;;;;;;;;;22.60;99.90;;;;;;5067571;28;19924;-62
2022/09/15 04:36:02;;;;;;;;;;;22.60;99.90;;;;;;5064882;28;20415;-62
2022/09/15 04:38:30;;;;;;;;;;;22.60;99.90;;;;;;5065098;28;20315;-62
2022/09/15 04:40:57;;;;;;;;;;;22.60;99.90;;;;;;5057192;28;19929;-63
2022/09/15 04:43:25;;;;;;;;;;;22.60;99.90;;;;;;5064964;28;19951;-63
2022/09/15 04:45:53;;;;;;;;;;;22.60;99.90;;;;;;5066266;28;19929;-63
2022/09/15 04:48:21;;;;;;;;;;;22.60;99.90;;;;;;5056531;28;20400;-63
2022/09/15 04:50:48;;;;;;;;;;;22.60;99.90;;;;;;5067734;28;20410;-62
2022/09/15 04:53:15;;;;;;;;;;;22.60;99.90;;;;;;5054041;28;19928;-63
2022/09/15 04:55:42;;;;;;;;;;;22.60;99.90;;;;;;5063009;28;19933;-63
2022/09/15 04:58:09;;;;;;;;;;;22.60;99.90;;;;;;5068147;28;19928;-63
2022/09/15 05:00:41;;;;;;;;;;;22.60;99.90;;;;;;5062559;28;19924;-63
2022/09/15 05:03:12;;;;;;;;;;;22.60;99.90;;;;;;5055289;28;19996;-63
2022/09/15 05:05:39;;;;;;;;;;;22.60;99.90;;;;;;5066789;28;19925;-63
2022/09/15 05:08:07;;;;;;;;;;;22.60;99.90;;;;;;5065048;28;20312;-62
2022/09/15 05:10:34;;;;;;;;;;;22.60;99.90;;;;;;5065549;28;19935;-63
2022/09/15 05:13:01;;;;;;;;;;;22.60;99.90;;;;;;5039620;28;20397;-63
2022/09/15 05:15:28;;;;;;;;;;;22.60;99.90;;;;;;5061242;28;19933;-63
2022/09/15 05:17:55;;;;;;;;;;;22.60;99.90;;;;;;5066030;28;19935;-63
2022/09/15 05:20:22;;;;;;;;;;;22.60;99.90;;;;;;5066608;28;19933;-63
2022/09/15 05:22:49;;;;;;;;;;;22.60;99.90;;;;;;5061021;28;19932;-62
2022/09/15 05:25:16;;;;;;;;;;;22.60;99.90;;;;;;5061366;28;19963;-63
2022/09/15 05:27:43;;;;;;;;;;;22.60;99.90;;;;;;5061865;28;19924;-64
2022/09/15 05:30:10;;;;;;;;;;;22.60;99.90;;;;;;5063101;28;19929;-62
2022/09/15 05:32:58;;;;;;;;;;;22.60;99.90;;;;;;5075932;28;19932;-64
2022/09/15 05:35:25;;;;;;;;;;;22.60;99.90;;;;;;5077213;28;19928;-61
2022/09/15 05:37:52;;;;;;;;;;;22.60;99.90;;;;;;5069364;28;19933;-64
2022/09/15 05:40:20;;;;;;;;;;;22.60;99.90;;;;;;5060468;28;19943;-63
2022/09/15 05:42:48;;;;;;;;;;;22.60;99.90;;;;;;5063466;28;20305;-64
2022/09/15 05:45:15;;;;;;;;;;;22.70;99.90;;;;;;5066465;28;19935;-63
2022/09/15 05:47:42;;;;;;;;;;;22.70;99.90;;;;;;5063395;28;19940;-63
2022/09/15 05:50:10;;;;;;;;;;;22.70;99.90;;;;;;5063001;28;19928;-64
2022/09/15 05:52:37;;;;;;;;;;;22.70;99.90;;;;;;5064660;28;19932;-63
2022/09/15 05:55:04;;;;;;;;;;;22.70;99.90;;;;;;5067969;28;20426;-63
2022/09/15 05:57:31;;;;;;;;;;;22.70;99.90;;;;;;5058055;28;19924;-64
2022/09/15 05:59:58;;;;;;;;;;;22.60;99.90;;;;;;5058598;28;19936;-64
2022/09/15 06:02:25;;;;;;;;;;;22.60;99.90;;;;;;5063932;28;19977;-64
2022/09/15 06:04:52;;;;;;;;;;;22.60;99.90;;;;;;5044780;28;19943;-63
2022/09/15 06:07:19;;;;;;;;;;;22.60;99.90;;;;;;5057625;28;20439;-65
2022/09/15 06:09:46;;;;;;;;;;;22.60;99.90;;;;;;5065019;28;19939;-65
2022/09/15 06:12:13;;;;;;;;;;;22.70;99.90;;;;;;5061518;28;19935;-64
2022/09/15 06:14:42;;;;;;;;;;;22.70;99.90;;;;;;5063731;28;20430;-67
2022/09/15 06:17:09;;;;;;;;;;;22.70;99.90;;;;;;5063033;28;19933;-66
2022/09/15 06:19:36;;;;;;;;;;;22.70;99.90;;;;;;5061029;28;19925;-67
2022/09/15 06:22:03;;;;;;;;;;;22.60;99.90;;;;;;5043796;28;20404;-65
2022/09/15 06:24:30;;;;;;;;;;;22.70;99.90;;;;;;5059060;28;20140;-64
2022/09/15 06:26:57;;;;;;;;;;;22.60;99.90;;;;;;5060495;28;20395;-63
2022/09/15 06:29:24;;;;;;;;;;;22.60;99.90;;;;;;5058897;28;19928;-64
2022/09/15 06:31:51;;;;;;;;;;;22.70;99.90;;;;;;5062183;28;19924;-64
2022/09/15 06:34:18;;;;;;;;;;;22.60;99.90;;;;;;5058969;28;19932;-66
2022/09/15 06:36:45;;;;;;;;;;;22.60;99.90;;;;;;5069961;28;20002;-64
2022/09/15 06:39:12;;;;;;;;;;;22.60;99.90;;;;;;5063371;28;19940;-61
2022/09/15 06:41:40;;;;;;;;;;;22.60;99.90;;;;;;5064542;28;20460;-63
2022/09/15 06:44:27;;;;;;;;;;;22.60;99.90;;;;;;5059841;28;20312;-63
2022/09/15 06:46:54;;;;;;;;;;;22.60;99.90;;;;;;5062469;28;20364;-63
2022/09/15 06:49:21;;;;;;;;;;;22.60;99.90;;;;;;5056238;28;19932;-63
2022/09/15 06:51:48;;;;;;;;;;;22.60;99.90;;;;;;5063602;28;20335;-64
2022/09/15 06:54:16;;;;;;;;;;;22.60;99.90;;;;;;5045814;28;19936;-64
2022/09/15 06:56:43;;;;;;;;;;;22.60;99.90;;;;;;5060810;28;19933;-63
2022/09/15 06:59:11;;;;;;;;;;;22.60;99.90;;;;;;5066667;28;19935;-65
2022/09/15 07:01:38;;;;;;;;;;;22.60;99.90;;;;;;5067036;28;19935;-65
2022/09/15 07:04:08;;;;;;;;;;;22.60;99.90;;;;;;5059950;28;19929;-63
2022/09/15 07:06:36;;;;;;;;;;;22.60;99.90;;;;;;5060395;28;20288;-65
2022/09/15 07:09:04;;;;;;;;;;;22.70;99.90;;;;;;5063936;28;19928;-64
2022/09/15 07:11:32;;;;;;;;;;;22.70;99.90;;;;;;5063163;28;19987;-60
2022/09/15 07:13:59;;;;;;;;;;;22.60;99.90;;;;;;5059799;28;19928;-64
2022/09/15 07:16:26;;;;;;;;;;;22.60;99.90;;;;;;5062368;28;19928;-63
2022/09/15 07:18:54;;;;;;;;;;;22.60;99.90;;;;;;5062568;28;19932;-67
2022/09/15 07:21:22;;;;;;;;;;;22.60;99.90;;;;;;5064912;28;19932;-64
2022/09/15 07:23:49;;;;;;;;;;;22.70;99.90;;;;;;5043332;28;19924;-62
2022/09/15 07:26:17;;;;;;;;;;;22.60;99.90;;;;;;5066622;28;19924;-65
2022/09/15 07:28:45;;;;;;;;;;;22.70;99.90;;;;;;5057177;28;19928;-63
2022/09/15 07:31:14;;;;;;;;;;;22.70;99.90;;;;;;5057612;28;19936;-64
2022/09/15 07:33:42;;;;;;;;;;;22.70;99.90;;;;;;5064978;28;20382;-65
2022/09/15 07:36:09;;;;;;;;;;;22.70;99.90;;;;;;5069019;28;19932;-63
2022/09/15 07:38:40;;;;;;;;;;;22.80;99.90;;;;;;5065477;28;19940;-64
2022/09/15 07:41:08;;;;;;;;;;;22.80;99.90;;;;;;5067787;28;19935;-66
2022/09/15 07:43:35;;;;;;;;;;;22.80;99.90;;;;;;5047045;28;19928;-66
2022/09/15 07:46:03;;;;;;;;;;;22.80;99.90;;;;;;5067058;28;19936;-67
2022/09/15 07:48:31;;;;;;;;;;;22.80;99.90;;;;;;5065819;28;20333;-65
2022/09/15 07:51:01;;;;;;;;;;;22.80;99.90;;;;;;5069227;28;20414;-66
2022/09/15 07:53:28;;;;;;;;;;;22.90;99.90;;;;;;5068218;28;19939;-67
2022/09/15 07:55:55;;;;;;;;;;;22.80;99.90;;;;;;5066683;28;19935;-66
2022/09/15 07:58:22;;;;;;;;;;;22.80;99.90;;;;;;5069276;28;19932;-62
2022/09/15 08:00:49;;;;;;;;;;;22.80;99.90;;;;;;5071782;28;19925;-63
2022/09/15 08:03:16;;;;;;;;;;;22.80;99.90;;;;;;5073893;28;19928;-64
2022/09/15 08:05:43;;;;;;;;;;;22.80;99.90;;;;;;5067747;28;20407;-62
2022/09/15 08:08:12;;;;;;;;;;;22.80;99.90;;;;;;5061387;28;20328;-63
2022/09/15 08:10:40;;;;;;;;;;;22.70;99.90;;;;;;5063482;28;19931;-65
2022/09/15 08:13:07;;;;;;;;;;;22.80;99.90;;;;;;5067624;28;20591;-65
2022/09/15 08:15:35;;;;;;;;;;;22.70;99.90;;;;;;5064887;28;19928;-62
2022/09/15 08:18:02;;;;;;;;;;;22.80;99.90;;;;;;5078599;28;19928;-61
2022/09/15 08:20:30;;;;;;;;;;;22.80;99.90;;;;;;5063257;28;20407;-62
2022/09/15 08:22:58;;;;;;;;;;;22.70;99.90;;;;;;5058962;28;19929;-63
2022/09/15 08:25:25;;;;;;;;;;;22.70;99.90;;;;;;5066817;28;20319;-63
2022/09/15 08:27:53;;;;;;;;;;;22.70;99.90;;;;;;5050062;28;20404;-63
2022/09/15 08:30:21;;;;;;;;;;;22.70;99.90;;;;;;5063851;28;19939;-63
2022/09/15 08:32:48;;;;;;;;;;;22.70;99.90;;;;;;5063534;28;19932;-64
2022/09/15 08:35:15;;;;;;;;;;;22.70;99.90;;;;;;5059530;28;19929;-63
2022/09/15 08:37:43;;;;;;;;;;;22.70;99.90;;;;;;5060074;28;19936;-65
2022/09/15 08:40:17;;;;;;;;;;;22.70;99.90;;;;;;5060211;28;19929;-63
2022/09/15 08:42:47;;;;;;;;;;;22.70;99.90;;;;;;5065179;28;19932;-65
2022/09/15 08:45:21;;;;;;;;;;;22.70;99.90;;;;;;5065425;28;19928;-64
2022/09/15 08:47:54;;;;;;;;;;;22.80;99.90;;;;;;5067034;28;19932;-64
2022/09/15 08:50:27;;;;;;;;;;;22.80;99.90;;;;;;5063759;28;19932;-65
2022/09/15 08:52:59;;;;;;;;;;;22.80;99.90;;;;;;5060258;28;19925;-64
2022/09/15 08:55:32;;;;;;;;;;;22.80;99.90;;;;;;5068718;28;20387;-66
2022/09/15 08:58:00;;;;;;;;;;;22.80;99.90;;;;;;5061113;28;19928;-64
2022/09/15 09:00:28;;;;;;;;;;;22.80;99.90;;;;;;5066082;28;19932;-63
2022/09/15 09:03:17;;;;;;;;;;;22.80;99.90;;;;;;5060627;28;19940;-62
2022/09/15 09:05:48;;;;;;;;;;;22.80;99.90;;;;;;5061958;28;19932;-63
2022/09/15 09:08:35;;;;;;;;;;;22.80;99.90;;;;;;5050955;28;19972;-63
2022/09/15 09:11:05;;;;;;;;;;;22.90;99.90;;;;;;5068748;28;19928;-62
2022/09/15 09:13:39;;;;;;;;;;;22.90;99.90;;;;;;5071817;28;19936;-64
2022/09/15 09:16:08;;;;;;;;;;;22.90;99.90;;;;;;5063428;28;20300;-63
2022/09/15 09:18:54;;;;;;;;;;;22.90;99.90;;;;;;5065362;28;19924;-63
2022/09/15 09:21:34;;;;;;;;;;;22.90;99.90;;;;;;5065890;28;19932;-63
2022/09/15 09:24:18;;;;;;;;;;;22.90;99.90;;;;;;5062278;28;19943;-63
2022/09/15 09:26:48;;;;;;;;;;;22.90;99.90;;;;;;5058939;28;20285;-61
2022/09/15 09:29:17;;;;;;;;;;;22.90;99.90;;;;;;5062680;28;19929;-61
2022/09/15 09:31:45;;;;;;;;;;;22.90;99.90;;;;;;5056903;28;19936;-62
2022/09/15 09:34:12;;;;;;;;;;;22.90;99.90;;;;;;5059059;28;19939;-61
2022/09/15 09:36:39;;;;;;;;;;;22.90;99.90;;;;;;5060334;28;19932;-63
2022/09/15 09:39:07;;;;;;;;;;;22.90;99.90;;;;;;5063737;28;19924;-61
2022/09/15 09:41:35;;;;;;;;;;;22.90;99.90;;;;;;5059080;28;19933;-63
2022/09/15 09:44:05;;;;;;;;;;;22.90;99.90;;;;;;5059922;28;19929;-62
2022/09/15 09:46:34;;;;;;;;;;;22.90;99.90;;;;;;5062300;28;19928;-59
2022/09/15 09:49:03;;;;;;;;;;;22.90;99.90;;;;;;5060401;28;20222;-61
2022/09/15 09:51:47;;;;;;;;;;;22.90;99.90;;;;;;5058975;28;19948;-64
2022/09/15 09:54:15;;;;;;;;;;;23.00;99.90;;;;;;5056759;28;19936;-60
2022/09/15 09:56:43;;;;;;;;;;;23.00;99.90;;;;;;5069197;28;19928;-62
2022/09/15 09:59:29;;;;;;;;;;;23.00;99.90;;;;;;5062096;28;20478;-63
2022/09/15 10:02:14;;;;;;;;;;;23.00;99.90;;;;;;5057927;28;19935;-64
2022/09/15 10:04:45;;;;;;;;;;;23.00;99.90;;;;;;5055328;28;19939;-64
2022/09/15 10:07:14;;;;;;;;;;;23.00;99.90;;;;;;5062460;28;19929;-65
2022/09/15 10:09:52;;;;;;;;;;;23.00;99.90;;;;;;5060862;28;19955;-64
2022/09/15 10:12:21;;;;;;;;;;;23.00;99.90;;;;;;5061086;28;19925;-63
2022/09/15 10:14:51;;;;;;;;;;;23.00;99.90;;;;;;5060397;28;19924;-64
2022/09/15 10:17:20;;;;;;;;;;;23.00;99.90;;;;;;5060107;28;19929;-63
2022/09/15 10:19:47;;;;;;;;;;;23.00;99.90;;;;;;5056966;28;19933;-63
2022/09/15 10:22:34;;;;;;;;;;;23.00;99.90;;;;;;5064203;28;19935;-64
2022/09/15 10:25:19;;;;;;;;;;;23.00;99.90;;;;;;5058230;28;19925;-62
2022/09/15 10:28:10;;;;;;;;;;;23.00;99.90;;;;;;5054760;28;19932;-63
2022/09/15 10:30:37;;;;;;;;;;;23.00;99.90;;;;;;5041360;28;19939;-62
2022/09/15 10:33:18;;;;;;;;;;;23.00;99.90;;;;;;5050373;28;19933;-62
2022/09/15 10:35:45;;;;;;;;;;;23.10;99.90;;;;;;5057686;28;19969;-62
2022/09/15 10:38:15;;;;;;;;;;;23.00;99.90;;;;;;5045827;28;19929;-62
2022/09/15 10:40:55;;;;;;;;;;;23.00;99.90;;;;;;5061124;28;19929;-64
2022/09/15 10:43:41;;;;;;;;;;;23.00;99.90;;;;;;5055939;28;19951;-64
2022/09/15 10:46:12;;;;;;;;;;;23.00;99.90;;;;;;5059619;28;19951;-63
2022/09/15 10:48:44;;;;;;;;;;;23.00;99.90;;;;;;5061405;28;19928;-63
2022/09/15 10:51:19;;;;;;;;;;;22.90;99.90;;;;;;5059280;28;19924;-63
2022/09/15 10:53:50;;;;;;;;;;;22.90;99.90;;;;;;5057505;28;19925;-62
2022/09/15 10:56:21;;;;;;;;;;;22.90;99.90;;;;;;5066341;28;19932;-63
2022/09/15 10:58:59;;;;;;;;;;;22.90;99.90;;;;;;5062229;28;19932;-63
2022/09/15 11:01:29;;;;;;;;;;;22.90;99.90;;;;;;5056834;28;19936;-61
2022/09/15 11:04:15;;;;;;;;;;;22.90;99.90;;;;;;5059271;28;19928;-62
2022/09/15 11:06:52;;;;;;;;;;;22.90;99.90;;;;;;5055579;28;19928;-63
2022/09/15 11:09:38;;;;;;;;;;;22.90;99.90;;;;;;5040044;28;19925;-62
2022/09/15 11:12:06;;;;;;;;;;;22.80;99.90;;;;;;5063681;28;19932;-61
2022/09/15 11:14:49;;;;;;;;;;;22.80;99.90;;;;;;5053582;28;19925;-62
2022/09/15 11:17:35;;;;;;;;;;;22.80;99.90;;;;;;5057833;28;19924;-59
2022/09/15 11:20:02;;;;;;;;;;;22.80;99.90;;;;;;5058581;28;19935;-62
2022/09/15 11:22:34;;;;;;;;;;;22.90;99.90;;;;;;5064862;28;19928;-62
2022/09/15 11:25:04;;;;;;;;;;;22.80;99.90;;;;;;5059637;28;20023;-62
2022/09/15 11:28:00;;;;;;;;;;;22.90;99.90;;;;;;5061111;28;19924;-60
2022/09/15 11:30:31;;;;;;;;;;;22.90;99.90;;;;;;5044880;28;20375;-61
2022/09/15 11:33:01;;;;;;;;;;;22.60;99.90;;;;;;5069232;28;20485;-59
2022/09/15 11:35:32;;;;;;;;;;;22.40;99.90;;;;;;5063365;28;20315;-60
2022/09/15 11:38:03;;;;;;;;;;;22.20;99.90;;;;;;5063360;28;19929;-59
2022/09/15 11:40:50;;;;;;;;;;;22.10;99.90;;;;;;5065284;28;20415;-61
2022/09/15 11:43:27;;;;;;;;;;;22.00;99.90;;;;;;5064010;28;19928;-60
2022/09/15 11:45:55;;;;;;;;;;;21.90;99.90;;;;;;5063421;28;19939;-58
2022/09/15 11:48:32;;;;;;;;;;;22.00;99.90;;;;;;5061231;28;19939;-60
2022/09/15 11:51:01;;;;;;;;;;;22.00;99.90;;;;;;5057057;28;19928;-61
2022/09/15 11:53:34;;;;;;;;;;;22.00;99.90;;;;;;5060287;28;19932;-62
2022/09/15 11:56:04;;;;;;;;;;;21.90;99.90;;;;;;5062809;28;19925;-63
2022/09/15 11:58:43;;;;;;;;;;;21.90;99.90;;;;;;5046386;28;19947;-62
2022/09/15 12:01:10;;;;;;;;;;;21.80;99.90;;;;;;5057651;28;19929;-59
2022/09/15 12:03:58;;;;;;;;;;;21.80;99.90;;;;;;5063403;28;20431;-60
2022/09/15 12:06:28;;;;;;;;;;;21.70;99.40;;;;;;5064762;28;19928;-56
2022/09/15 12:09:00;;;;;;;;;;;21.70;99.50;;;;;;5064639;28;19944;-60
2022/09/15 12:11:29;;;;;;;;;;;21.70;99.90;;;;;;5058214;28;19932;-60
2022/09/15 12:13:56;;;;;;;;;;;21.60;99.90;;;;;;5061307;28;20366;-56
2022/09/15 12:16:24;;;;;;;;;;;21.60;99.90;;;;;;5062658;28;19928;-66
2022/09/15 12:18:54;;;;;;;;;;;21.60;99.30;;;;;;5061656;28;19932;-60
2022/09/15 12:21:28;;;;;;;;;;;21.70;99.90;;;;;;5059183;28;19932;-68
2022/09/15 12:24:15;;;;;;;;;;;21.90;99.90;;;;;;5044405;28;19929;-66
2022/09/15 12:26:45;;;;;;;;;;;22.10;99.90;;;;;;5049939;28;19928;-63
2022/09/15 12:29:32;;;;;;;;;;;22.20;99.90;;;;;;5062591;28;20390;-64
2022/09/15 12:32:08;;;;;;;;;;;22.30;99.90;;;;;;5051703;28;20367;-67
2022/09/15 12:34:37;;;;;;;;;;;22.30;99.90;;;;;;5064185;28;19928;-64
2022/09/15 12:37:23;;;;;;;;;;;22.40;99.90;;;;;;5065484;28;19924;-64
2022/09/15 12:39:50;;;;;;;;;;;22.40;99.90;;;;;;5063714;28;19943;-63
2022/09/15 12:42:19;;;;;;;;;;;22.40;99.90;;;;;;5064067;28;19928;-66
2022/09/15 12:44:49;;;;;;;;;;;22.40;99.90;;;;;;5062772;28;19933;-65
2022/09/15 12:47:16;;;;;;;;;;;22.50;99.90;;;;;;5058558;28;19928;-68
2022/09/15 12:49:45;;;;;;;;;;;22.50;99.90;;;;;;5064048;28;19943;-64
2022/09/15 12:52:13;;;;;;;;;;;22.50;99.90;;;;;;5061981;28;19935;-66
2022/09/15 12:54:42;;;;;;;;;;;22.50;99.90;;;;;;5066990;28;20467;-67
2022/09/15 12:57:19;;;;;;;;;;;22.50;99.90;;;;;;5068666;28;19924;-65
2022/09/15 12:59:46;;;;;;;;;;;22.60;99.90;;;;;;5067992;28;19925;-66
2022/09/15 13:02:34;;;;;;;;;;;22.60;99.90;;;;;;5077521;28;20289;-65
2022/09/15 13:05:01;;;;;;;;;;;22.60;99.90;;;;;;5068110;28;20218;-66
2022/09/15 13:07:33;;;;;;;;;;;22.60;99.90;;;;;;5067025;28;19932;-65
2022/09/15 13:10:06;;;;;;;;;;;22.70;99.90;;;;;;5061280;28;19928;-67
2022/09/15 13:12:37;;;;;;;;;;;22.70;99.90;;;;;;5062405;28;20023;-63
2022/09/15 13:15:05;;;;;;;;;;;22.70;99.90;;;;;;5067426;28;19931;-64
2022/09/15 13:17:33;;;;;;;;;;;22.70;99.90;;;;;;5061691;28;19928;-65
2022/09/15 13:20:07;;;;;;;;;;;22.70;99.90;;;;;;5065041;28;19932;-67
2022/09/15 13:22:36;;;;;;;;;;;22.70;99.90;;;;;;5068099;28;19931;-66
2022/09/15 13:25:06;;;;;;;;;;;22.70;99.90;;;;;;5062312;28;19925;-64
2022/09/15 13:27:41;;;;;;;;;;;22.80;99.90;;;;;;5058868;28;19933;-64
2022/09/15 13:30:20;;;;;;;;;;;22.80;99.90;;;;;;5060962;28;19932;-69
2022/09/15 13:32:56;;;;;;;;;;;22.90;99.90;;;;;;5060534;28;19932;-67
2022/09/15 13:35:41;;;;;;;;;;;22.90;99.90;;;;;;5044461;28;20307;-65
2022/09/15 13:38:27;;;;;;;;;;;22.90;99.90;;;;;;5057924;28;19933;-65
2022/09/15 13:41:01;;;;;;;;;;;23.00;99.90;;;;;;5061791;28;19935;-67
2022/09/15 13:43:28;;;;;;;;;;;23.20;99.90;;;;;;5064652;28;20371;-69
2022/09/15 13:46:04;;;;;;;;;;;23.30;99.90;;;;;;5065875;28;19929;-64
2022/09/15 13:48:46;;;;;;;;;;;23.40;99.90;;;;;;5066763;28;19924;-66
2022/09/15 13:51:29;;;;;;;;;;;23.50;99.90;;;;;;5058230;28;19925;-68
2022/09/15 13:54:07;;;;;;;;;;;23.50;99.90;;;;;;5064094;28;19925;-68
2022/09/15 13:56:37;;;;;;;;;;;23.40;99.90;;;;;;5062931;28;19924;-67
2022/09/15 13:59:05;;;;;;;;;;;23.40;99.90;;;;;;5064641;28;19925;-63
2022/09/15 14:01:41;;;;;;;;;;;23.40;99.90;;;;;;5066334;28;19956;-62
2022/09/15 14:04:11;;;;;;;;;;;23.40;99.90;;;;;;5058968;28;19933;-65
2022/09/15 14:06:43;;;;;;;;;;;23.40;99.90;;;;;;5058011;28;19938;-65
2022/09/15 14:09:13;;;;;;;;;;;23.40;99.90;;;;;;5062543;28;19944;-67
2022/09/15 14:11:41;;;;;;;;;;;23.40;99.90;;;;;;5062818;28;19929;-64
2022/09/15 14:14:16;;;;;;;;;;;23.30;99.90;;;;;;5061710;28;19933;-63
2022/09/15 14:16:47;;;;;;;;;;;23.30;99.90;;;;;;5068966;28;19928;-65
2022/09/15 14:19:32;;;;;;;;;;;23.30;99.90;;;;;;5065738;28;19928;-64
2022/09/15 14:22:17;;;;;;;;;;;23.30;99.90;;;;;;5064363;28;19929;-61
2022/09/15 14:24:44;;;;;;;;;;;23.30;99.90;;;;;;5062275;28;19928;-64
2022/09/15 14:27:11;;;;;;;;;;;23.20;99.90;;;;;;5059278;28;19993;-63
2022/09/15 14:29:40;;;;;;;;;;;23.20;99.90;;;;;;5049130;28;19952;-65
2022/09/15 14:32:17;;;;;;;;;;;23.30;99.90;;;;;;5069880;28;19947;-60
2022/09/15 14:34:44;;;;;;;;;;;23.20;99.90;;;;;;5065985;28;19928;-62
2022/09/15 14:37:16;;;;;;;;;;;23.30;99.90;;;;;;5066936;28;19935;-64
2022/09/15 14:39:53;;;;;;;;;;;23.20;99.90;;;;;;5063015;28;19952;-62
2022/09/15 14:42:24;;;;;;;;;;;23.30;99.90;;;;;;5062314;28;19936;-62